createdAt,value
2022-08-22T00:01:48.190Z,101235.50
2022-08-22T00:04:23.630Z,101233.16
2022-08-22T00:07:21.635Z,101234.72
2022-08-22T00:10:04.918Z,101230.19
2022-08-22T00:12:45.680Z,101236.78
2022-08-22T00:15:43.234Z,101236.75
2022-08-22T00:18:29.731Z,101242.72
2022-08-22T00:21:05.811Z,101247.53
2022-08-22T00:23:45.541Z,101253.94
2022-08-22T00:26:20.265Z,101259.16
2022-08-22T00:28:51.025Z,101253.53
2022-08-22T00:31:40.752Z,101253.47
2022-08-22T00:34:31.240Z,101263.28
2022-08-22T00:37:28.635Z,101253.22
2022-08-22T00:40:23.882Z,101268.03
2022-08-22T00:43:04.188Z,101261.19
2022-08-22T00:46:08.997Z,101257.75
2022-08-22T00:49:06.509Z,101258.16
2022-08-22T00:52:25.154Z,101256.34
2022-08-22T00:55:25.355Z,101261.09
2022-08-22T00:58:33.800Z,101260.91
2022-08-22T01:01:10.463Z,101256.44
2022-08-22T01:03:50.350Z,101264.22
2022-08-22T01:06:37.980Z,101267.28
2022-08-22T01:09:33.331Z,101261.53
2022-08-22T01:12:19.808Z,101265.34
2022-08-22T01:15:01.876Z,101258.91
2022-08-22T01:18:03.165Z,101266.56
2022-08-22T01:21:12.736Z,101263.25
2022-08-22T01:23:51.555Z,101263.78
2022-08-22T01:26:50.595Z,101261.09
2022-08-22T01:29:40.604Z,101262.19
2022-08-22T01:32:29.559Z,101268.47
2022-08-22T01:35:06.271Z,101260.06
2022-08-22T01:37:52.835Z,101267.72
2022-08-22T01:40:35.739Z,101270.88
2022-08-22T01:43:11.715Z,101275.66
2022-08-22T01:46:03.500Z,101268.13
2022-08-22T01:48:39.066Z,101271.19
2022-08-22T01:51:11.235Z,101264.53
2022-08-22T01:54:11.260Z,101266.84
2022-08-22T01:56:47.035Z,101271.75
2022-08-22T01:59:32.245Z,101274.53
2022-08-22T02:02:40.914Z,101281.25
2022-08-22T02:05:23.515Z,101289.16
2022-08-22T02:07:57.915Z,101283.31
2022-08-22T02:10:29.140Z,101282.06
2022-08-22T02:13:03.789Z,101284.81
2022-08-22T02:15:41.228Z,101290.16
2022-08-22T02:18:29.224Z,101295.56
2022-08-22T02:21:17.945Z,101302.50
2022-08-22T02:23:58.057Z,101302.72
2022-08-22T02:27:05.120Z,101298.59
2022-08-22T02:29:54.921Z,101315.38
2022-08-22T02:32:32.070Z,101306.97
2022-08-22T02:35:40.995Z,101309.88
2022-08-22T02:38:26.440Z,101317.88
2022-08-22T02:41:22.131Z,101318.19
2022-08-22T02:43:50.276Z,101315.34
2022-08-22T02:46:43.470Z,101325.47
2022-08-22T02:49:27.336Z,101318.56
2022-08-22T02:52:25.389Z,101326.22
2022-08-22T02:55:14.745Z,101339.16
2022-08-22T02:58:05.639Z,101340.22
2022-08-22T03:00:46.621Z,101337.53
2022-08-22T03:03:26.274Z,101345.44
2022-08-22T03:06:01.750Z,101351.78
2022-08-22T03:08:55.314Z,101346.88
2022-08-22T03:11:31.080Z,101357.88
2022-08-22T03:14:16.680Z,101351.50
2022-08-22T03:16:47.715Z,101356.88
2022-08-22T03:19:45.170Z,101354.28
2022-08-22T03:22:42.510Z,101360.75
2022-08-22T03:25:44.910Z,101374.81
2022-08-22T03:28:24.270Z,101374.44
2022-08-22T03:30:52.511Z,101376.38
2022-08-22T03:33:24.195Z,101382.72
2022-08-22T03:36:12.155Z,101383.88
2022-08-22T03:38:50.985Z,101384.84
2022-08-22T03:41:40.835Z,101391.22
2022-08-22T03:44:44.355Z,101396.78
2022-08-22T03:47:30.916Z,101393.72
2022-08-22T03:50:13.960Z,101401.25
2022-08-22T03:53:18.639Z,101394.50
2022-08-22T03:56:15.870Z,101404.22
2022-08-22T03:59:02.510Z,101404.88
2022-08-22T04:01:49.155Z,101402.19
2022-08-22T04:04:44.366Z,101404.88
2022-08-22T04:07:44.115Z,101404.00
2022-08-22T04:10:37.545Z,101415.84
2022-08-22T04:13:18.295Z,101421.25
2022-08-22T04:16:23.555Z,101422.28
2022-08-22T04:19:20.766Z,101424.41
2022-08-22T04:22:10.645Z,101428.19
2022-08-22T04:24:52.079Z,101430.88
2022-08-22T04:27:41.809Z,101440.09
2022-08-22T04:30:39.077Z,101434.88
2022-08-22T04:33:22.765Z,101445.84
2022-08-22T04:36:55.150Z,101444.38
2022-08-22T04:39:40.718Z,101448.28
2022-08-22T04:42:32.146Z,101448.56
2022-08-22T04:45:11.221Z,101438.94
2022-08-22T04:47:55.656Z,101449.81
2022-08-22T04:50:38.010Z,101446.53
2022-08-22T04:53:19.790Z,101446.72
2022-08-22T04:56:07.361Z,101459.47
2022-08-22T04:58:56.519Z,101455.16
2022-08-22T05:01:39.604Z,101458.88
2022-08-22T05:04:12.015Z,101461.69
2022-08-22T05:06:45.085Z,101466.31
2022-08-22T05:09:19.960Z,101463.69
2022-08-22T05:11:53.910Z,101476.47
2022-08-22T05:14:32.765Z,101465.88
2022-08-22T05:17:03.185Z,101467.81
2022-08-22T05:19:38.260Z,101465.28
2022-08-22T05:22:20.195Z,101467.19
2022-08-22T05:24:53.594Z,101460.16
2022-08-22T05:27:34.444Z,101460.53
2022-08-22T05:30:14.470Z,101473.44
2022-08-22T05:32:59.075Z,101478.25
2022-08-22T05:35:39.786Z,101473.22
2022-08-22T05:38:13.149Z,101468.97
2022-08-22T05:40:44.035Z,101476.25
2022-08-22T05:43:13.620Z,101474.69
2022-08-22T05:45:47.557Z,101473.81
2022-08-22T05:48:31.245Z,101475.00
2022-08-22T05:51:10.114Z,101474.56
2022-08-22T05:53:47.090Z,101475.59
2022-08-22T05:56:20.520Z,101484.72
2022-08-22T05:59:24.005Z,101482.28
2022-08-22T06:02:19.714Z,101485.31
2022-08-22T06:04:55.495Z,101479.31
2022-08-22T06:07:32.169Z,101477.59
2022-08-22T06:10:22.902Z,101473.94
2022-08-22T06:12:54.257Z,101474.91
2022-08-22T06:15:26.663Z,101471.34
2022-08-22T06:18:08.498Z,101472.47
2022-08-22T06:21:01.477Z,101477.94
2022-08-22T06:23:36.238Z,101475.41
2022-08-22T06:26:06.499Z,101478.25
2022-08-22T06:28:54.887Z,101476.44
2022-08-22T06:31:38.883Z,101481.22
2022-08-22T06:34:14.900Z,101482.22
2022-08-22T06:36:48.918Z,101483.25
2022-08-22T06:39:32.189Z,101477.88
2022-08-22T06:42:16.846Z,101476.16
2022-08-22T06:45:09.878Z,101479.03
2022-08-22T06:47:43.578Z,101483.78
2022-08-22T06:50:31.973Z,101491.19
2022-08-22T06:53:24.683Z,101487.81
2022-08-22T06:55:57.452Z,101489.69
2022-08-22T06:58:34.578Z,101493.34
2022-08-22T07:01:32.534Z,101489.78
2022-08-22T07:04:10.257Z,101481.72
2022-08-22T07:06:42.098Z,101485.38
2022-08-22T07:09:30.503Z,101483.81
2022-08-22T07:12:03.219Z,101486.47
2022-08-22T07:14:46.578Z,101491.03
2022-08-22T07:17:25.463Z,101488.50
2022-08-22T07:20:05.899Z,101494.03
2022-08-22T07:22:38.740Z,101487.09
2022-08-22T07:25:14.754Z,101487.41
2022-08-22T07:28:15.907Z,101485.75
2022-08-22T07:30:44.483Z,101478.00
2022-08-22T07:33:36.019Z,101480.06
2022-08-22T07:36:37.778Z,101490.09
2022-08-22T07:39:26.578Z,101485.69
2022-08-22T07:42:08.347Z,101488.38
2022-08-22T07:44:59.148Z,101486.78
2022-08-22T07:47:38.738Z,101483.09
2022-08-22T07:50:13.868Z,101495.00
2022-08-22T07:52:46.028Z,101492.47
2022-08-22T07:55:24.173Z,101490.75
2022-08-22T07:58:04.592Z,101493.47
2022-08-22T08:00:34.343Z,101495.47
2022-08-22T08:03:10.418Z,101500.84
2022-08-22T08:05:42.579Z,101505.34
2022-08-22T08:08:40.178Z,101502.66
2022-08-22T08:11:13.298Z,101499.34
2022-08-22T08:13:48.109Z,101497.81
2022-08-22T08:16:25.703Z,101496.16
2022-08-22T08:18:58.103Z,101494.44
2022-08-22T08:21:36.003Z,101492.75
2022-08-22T08:24:08.018Z,101492.97
2022-08-22T08:27:02.236Z,101497.63
2022-08-22T08:29:32.468Z,101491.56
2022-08-22T08:32:03.058Z,101492.66
2022-08-22T08:34:35.549Z,101498.06
2022-08-22T08:37:26.584Z,101499.97
2022-08-22T08:40:05.075Z,101503.75
2022-08-22T08:43:14.242Z,101504.03
2022-08-22T08:46:10.258Z,101504.97
2022-08-22T08:49:06.488Z,101508.56
2022-08-22T08:51:57.138Z,101508.56
2022-08-22T08:54:37.413Z,101505.19
2022-08-22T08:57:30.578Z,101507.22
2022-08-22T09:00:15.867Z,101503.72
2022-08-22T09:02:57.238Z,101499.31
2022-08-22T09:05:46.737Z,101493.09
2022-08-22T09:08:38.083Z,101495.91
2022-08-22T09:11:18.223Z,101496.78
2022-08-22T09:14:23.955Z,101500.97
2022-08-22T09:17:16.427Z,101500.69
2022-08-22T09:20:17.849Z,101499.53
2022-08-22T09:23:12.505Z,101503.06
2022-08-22T09:25:47.017Z,101501.06
2022-08-22T09:31:48.317Z,101500.06
2022-08-22T09:34:28.977Z,101499.13
2022-08-22T09:37:09.137Z,101504.31
2022-08-22T09:39:49.465Z,101496.19
2022-08-22T09:42:56.563Z,101502.13
2022-08-22T09:45:56.338Z,101500.16
2022-08-22T09:48:54.257Z,101494.03
2022-08-22T09:51:33.384Z,101503.16
2022-08-22T09:54:14.257Z,101505.75
2022-08-22T09:56:48.602Z,101502.13
2022-08-22T09:59:22.262Z,101499.38
2022-08-22T10:02:15.439Z,101508.22
2022-08-22T10:04:59.382Z,101498.25
2022-08-22T10:07:39.627Z,101503.56
2022-08-22T10:10:22.897Z,101504.25
2022-08-22T10:13:25.618Z,101513.84
2022-08-22T10:16:02.583Z,101512.09
2022-08-22T10:18:44.033Z,101505.72
2022-08-22T10:21:36.337Z,101509.19
2022-08-22T10:24:27.217Z,101502.88
2022-08-22T10:27:02.833Z,101500.25
2022-08-22T10:29:37.143Z,101499.25
2022-08-22T10:32:14.517Z,101494.84
2022-08-22T10:34:52.657Z,101489.47
2022-08-22T10:38:02.578Z,101500.03
2022-08-22T10:41:09.802Z,101499.88
2022-08-22T10:44:01.155Z,101502.47
2022-08-22T10:47:01.617Z,101497.19
2022-08-22T10:49:36.497Z,101493.78
2022-08-22T10:52:15.362Z,101491.97
2022-08-22T10:55:01.779Z,101497.34
2022-08-22T10:58:08.977Z,101494.75
2022-08-22T11:00:50.352Z,101487.47
2022-08-22T11:03:28.407Z,101491.91
2022-08-22T11:06:02.577Z,101481.19
2022-08-22T11:09:05.737Z,101481.88
2022-08-22T11:11:45.142Z,101477.47
2022-08-22T11:14:44.810Z,101481.09
2022-08-22T11:18:03.630Z,101488.34
2022-08-22T11:20:54.417Z,101482.97
2022-08-22T11:23:28.923Z,101481.97
2022-08-22T11:26:33.576Z,101484.66
2022-08-22T11:29:41.242Z,101485.59
2022-08-22T11:32:45.305Z,101482.84
2022-08-22T11:35:28.498Z,101489.06
2022-08-22T11:37:59.703Z,101481.88
2022-08-22T11:40:49.778Z,101484.66
2022-08-22T11:43:55.058Z,101477.47
2022-08-22T11:46:29.944Z,101479.13
2022-08-22T11:49:25.753Z,101487.25
2022-08-22T11:52:13.622Z,101486.38
2022-08-22T11:54:57.548Z,101484.66
2022-08-22T11:57:39.698Z,101491.75
2022-08-22T12:00:27.698Z,101482.06
2022-08-22T12:03:01.877Z,101477.69
2022-08-22T12:05:37.683Z,101482.19
2022-08-22T12:08:21.366Z,101467.91
2022-08-22T12:11:07.863Z,101468.00
2022-08-22T12:13:41.898Z,101473.50
2022-08-22T12:16:15.698Z,101477.16
2022-08-22T12:18:52.976Z,101477.28
2022-08-22T12:22:00.473Z,101474.69
2022-08-22T12:24:50.577Z,101470.44
2022-08-22T12:27:36.819Z,101468.75
2022-08-22T12:30:46.184Z,101472.56
2022-08-22T12:33:39.378Z,101470.09
2022-08-22T12:36:22.378Z,101471.19
2022-08-22T12:39:25.458Z,101477.75
2022-08-22T12:42:35.862Z,101479.66
2022-08-22T12:45:35.304Z,101469.06
2022-08-22T12:48:08.823Z,101476.47
2022-08-22T12:50:54.738Z,101457.94
2022-08-22T12:53:35.379Z,101462.66
2022-08-22T12:56:18.258Z,101463.97
2022-08-22T12:59:08.659Z,101467.81
2022-08-22T13:01:43.529Z,101470.78
2022-08-22T13:04:34.367Z,101471.88
2022-08-22T13:07:23.543Z,101476.41
2022-08-22T13:10:00.024Z,101475.63
2022-08-22T13:12:36.660Z,101475.00
2022-08-22T13:15:55.379Z,101480.69
2022-08-22T13:18:32.297Z,101480.03
2022-08-22T13:21:11.556Z,101474.91
2022-08-22T13:23:48.178Z,101475.09
2022-08-22T13:26:32.057Z,101477.06
2022-08-22T13:29:25.146Z,101478.16
2022-08-22T13:32:02.429Z,101479.22
2022-08-22T13:34:55.953Z,101477.63
2022-08-22T13:37:45.064Z,101484.91
2022-08-22T13:40:33.138Z,101494.94
2022-08-22T13:43:12.588Z,101499.53
2022-08-22T13:45:51.539Z,101496.94
2022-08-22T13:48:24.018Z,101505.19
2022-08-22T13:51:05.623Z,101499.81
2022-08-22T13:54:02.096Z,101511.47
2022-08-22T13:56:47.180Z,101512.44
2022-08-22T13:59:50.254Z,101519.50
2022-08-22T14:02:43.188Z,101511.59
2022-08-22T14:05:29.302Z,101510.66
2022-08-22T14:08:25.734Z,101508.81
2022-08-22T14:11:01.390Z,101510.53
2022-08-22T14:13:51.073Z,101523.84
2022-08-22T14:16:35.059Z,101517.56
2022-08-22T14:19:13.299Z,101525.53
2022-08-22T14:21:59.249Z,101525.41
2022-08-22T14:24:55.773Z,101535.03
2022-08-22T14:28:01.041Z,101533.97
2022-08-22T14:30:37.939Z,101538.22
2022-08-22T14:33:19.863Z,101538.00
2022-08-22T14:36:00.499Z,101535.06
2022-08-22T14:38:37.464Z,101535.72
2022-08-22T14:41:57.102Z,101539.72
2022-08-22T14:44:46.829Z,101541.25
2022-08-22T14:47:55.361Z,101544.53
2022-08-22T14:50:53.151Z,101544.09
2022-08-22T14:53:30.901Z,101542.88
2022-08-22T14:56:29.298Z,101542.50
2022-08-22T14:59:14.883Z,101543.88
2022-08-22T15:01:59.662Z,101544.47
2022-08-22T15:04:38.823Z,101545.03
2022-08-22T15:07:09.947Z,101546.53
2022-08-22T15:09:44.688Z,101548.03
2022-08-22T15:12:35.223Z,101554.78
2022-08-22T15:15:09.398Z,101560.81
2022-08-22T15:17:40.317Z,101550.59
2022-08-22T15:20:27.701Z,101559.06
2022-08-22T15:23:01.424Z,101548.75
2022-08-22T15:25:32.590Z,101554.69
2022-08-22T15:28:20.149Z,101554.13
2022-08-22T15:30:59.706Z,101558.22
2022-08-22T15:33:35.323Z,101562.44
2022-08-22T15:36:24.348Z,101557.94
2022-08-22T15:39:14.107Z,101561.31
2022-08-22T15:41:47.343Z,101553.75
2022-08-22T15:44:32.234Z,101547.16
2022-08-22T15:47:11.824Z,101556.69
2022-08-22T15:50:03.015Z,101552.81
2022-08-22T15:52:59.011Z,101549.13
2022-08-22T15:55:34.553Z,101553.34
2022-08-22T15:58:21.940Z,101550.44
2022-08-22T16:01:18.896Z,101552.81
2022-08-22T16:04:13.923Z,101552.22
2022-08-22T16:06:54.524Z,101559.69
2022-08-22T16:09:44.582Z,101563.81
2022-08-22T16:12:53.791Z,101558.78
2022-08-22T16:15:55.770Z,101557.00
2022-08-22T16:18:43.547Z,101559.28
2022-08-22T16:21:19.382Z,101562.59
2022-08-22T16:23:59.379Z,101564.06
2022-08-22T16:26:40.950Z,101555.72
2022-08-22T16:29:17.495Z,101562.53
2022-08-22T16:31:49.457Z,101553.13
2022-08-22T16:34:21.242Z,101563.38
2022-08-22T16:37:10.052Z,101562.84
2022-08-22T16:39:48.059Z,101557.63
2022-08-22T16:42:25.231Z,101560.53
2022-08-22T16:45:16.017Z,101557.34
2022-08-22T16:48:36.427Z,101551.50
2022-08-22T16:51:13.783Z,101559.00
2022-08-22T16:53:45.932Z,101561.84
2022-08-22T16:56:23.542Z,101555.88
2022-08-22T16:59:19.334Z,101549.84
2022-08-22T17:02:08.023Z,101555.44
2022-08-22T17:04:56.178Z,101555.81
2022-08-22T17:07:47.027Z,101559.06
2022-08-22T17:10:43.218Z,101550.47
2022-08-22T17:13:26.276Z,101556.25
2022-08-22T17:16:16.985Z,101552.00
2022-08-22T17:19:03.542Z,101549.00
2022-08-22T17:21:59.702Z,101542.94
2022-08-22T17:24:42.262Z,101555.81
2022-08-22T17:27:32.572Z,101549.50
2022-08-22T17:30:14.412Z,101555.13
2022-08-22T17:32:59.185Z,101551.03
2022-08-22T17:36:01.622Z,101553.25
2022-08-22T17:38:39.335Z,101553.38
2022-08-22T17:41:30.547Z,101548.03
2022-08-22T17:44:22.831Z,101551.16
2022-08-22T17:47:01.296Z,101546.97
2022-08-22T17:49:47.627Z,101553.09
2022-08-22T17:52:27.862Z,101555.06
2022-08-22T17:55:03.058Z,101547.09
2022-08-22T17:57:37.778Z,101549.22
2022-08-22T18:00:36.923Z,101547.38
2022-08-22T18:03:23.537Z,101545.13
2022-08-22T18:06:05.297Z,101550.75
2022-08-22T18:09:15.775Z,101542.09
2022-08-22T18:12:03.473Z,101551.69
2022-08-22T18:14:45.252Z,101552.34
2022-08-22T18:17:36.182Z,101541.06
2022-08-22T18:20:29.598Z,101543.19
2022-08-22T18:23:36.182Z,101549.53
2022-08-22T18:26:21.292Z,101541.13
2022-08-22T18:28:55.813Z,101545.16
2022-08-22T18:32:07.238Z,101543.84
2022-08-22T18:34:45.270Z,101532.97
2022-08-22T18:37:24.083Z,101531.50
2022-08-22T18:40:02.789Z,101525.25
2022-08-22T18:42:56.672Z,101524.19
2022-08-22T18:45:49.778Z,101531.75
2022-08-22T18:48:28.618Z,101528.69
2022-08-22T18:51:24.815Z,101527.94
2022-08-22T18:54:06.303Z,101513.78
2022-08-22T18:56:56.755Z,101518.44
2022-08-22T19:00:01.403Z,101512.53
2022-08-22T19:02:58.483Z,101512.53
2022-08-22T19:05:35.538Z,101505.47
2022-08-22T19:08:12.503Z,101503.31
2022-08-22T19:11:09.298Z,101494.88
2022-08-22T19:14:23.628Z,101496.28
2022-08-22T19:17:17.098Z,101501.53
2022-08-22T19:20:15.759Z,101497.03
2022-08-22T19:22:44.925Z,101487.66
2022-08-22T19:25:29.458Z,101495.97
2022-08-22T19:28:10.364Z,101489.03
2022-08-22T19:31:16.093Z,101492.94
2022-08-22T19:34:11.961Z,101480.94
2022-08-22T19:36:40.346Z,101481.13
2022-08-22T19:39:13.425Z,101478.03
2022-08-22T19:41:48.346Z,101481.81
2022-08-22T19:44:19.868Z,101482.81
2022-08-22T19:47:05.544Z,101469.06
2022-08-22T19:49:41.894Z,101458.63
2022-08-22T19:52:24.924Z,101458.94
2022-08-22T19:55:27.064Z,101451.16
2022-08-22T19:57:58.189Z,101451.59
2022-08-22T20:00:49.310Z,101446.69
2022-08-22T20:03:20.764Z,101456.00
2022-08-22T20:06:43.429Z,101460.38
2022-08-22T20:09:43.701Z,101445.44
2022-08-22T20:12:23.734Z,101443.25
2022-08-22T20:14:53.134Z,101447.50
2022-08-22T20:17:27.474Z,101439.47
2022-08-22T20:23:05.100Z,101443.28
2022-08-22T20:25:54.225Z,101433.31
2022-08-22T20:28:48.020Z,101435.47
2022-08-22T20:31:26.265Z,101432.63
2022-08-22T20:34:01.794Z,101431.41
2022-08-22T20:36:31.555Z,101423.84
2022-08-22T20:39:06.904Z,101436.78
2022-08-22T20:41:44.345Z,101431.84
2022-08-22T20:44:20.594Z,101436.22
2022-08-22T20:47:06.889Z,101425.19
2022-08-22T20:49:51.284Z,101425.13
2022-08-22T20:52:39.069Z,101423.03
2022-08-22T20:55:16.439Z,101413.03
2022-08-22T20:57:50.550Z,101422.94
2022-08-22T21:00:25.419Z,101424.28
2022-08-22T21:03:10.674Z,101418.50
2022-08-22T21:05:41.944Z,101410.81
2022-08-22T21:08:15.702Z,101409.16
2022-08-22T21:11:01.862Z,101403.34
2022-08-22T21:13:38.942Z,101400.19
2022-08-22T21:16:19.220Z,101404.66
2022-08-22T21:18:50.898Z,101399.66
2022-08-22T21:21:32.978Z,101397.13
2022-08-22T21:24:05.463Z,101406.06
2022-08-22T21:26:39.858Z,101389.56
2022-08-22T21:29:14.225Z,101397.50
2022-08-22T21:31:59.296Z,101392.00
2022-08-22T21:34:42.044Z,101388.72
2022-08-22T21:37:27.671Z,101390.78
2022-08-22T21:40:21.969Z,101398.16
2022-08-22T21:43:01.143Z,101386.19
2022-08-22T21:45:43.383Z,101381.38
2022-08-22T21:48:39.394Z,101371.06
2022-08-22T21:51:27.703Z,101378.59
2022-08-22T21:54:26.722Z,101387.16
2022-08-22T21:57:28.408Z,101370.34
2022-08-22T21:59:59.531Z,101372.72
2022-08-22T22:02:36.634Z,101378.56
2022-08-22T22:05:12.502Z,101363.81
2022-08-22T22:07:43.556Z,101364.00
2022-08-22T22:10:14.093Z,101357.50
2022-08-22T22:12:45.308Z,101355.38
2022-08-22T22:15:18.259Z,101351.53
2022-08-22T22:17:46.638Z,101353.03
2022-08-22T22:20:17.303Z,101340.00
2022-08-22T22:22:46.854Z,101348.47
2022-08-22T22:25:40.477Z,101341.69
2022-08-22T22:28:22.694Z,101343.94
2022-08-22T22:30:54.361Z,101343.94
2022-08-22T22:33:29.873Z,101342.72
2022-08-22T22:36:02.258Z,101331.75
2022-08-22T22:38:30.739Z,101343.28
2022-08-22T22:40:58.993Z,101333.19
2022-08-22T22:43:27.543Z,101338.19
2022-08-22T22:45:56.564Z,101338.34
2022-08-22T22:48:25.873Z,101329.94
2022-08-22T22:50:55.222Z,101324.31
2022-08-22T22:53:33.790Z,101326.69
2022-08-22T22:56:09.903Z,101318.22
2022-08-22T22:58:39.559Z,101322.78
2022-08-22T23:01:18.505Z,101314.03
2022-08-22T23:03:48.149Z,101323.19
2022-08-22T23:06:21.302Z,101311.69
2022-08-22T23:08:50.755Z,101316.06
2022-08-22T23:11:28.503Z,101315.25
2022-08-22T23:13:57.457Z,101308.03
2022-08-22T23:16:29.203Z,101319.00
2022-08-22T23:18:57.763Z,101309.81
2022-08-22T23:21:29.298Z,101304.97
2022-08-22T23:23:59.658Z,101305.53
2022-08-22T23:26:29.624Z,101301.72
2022-08-22T23:28:58.835Z,101300.06
2022-08-22T23:31:40.986Z,101294.66
2022-08-22T23:34:12.518Z,101305.25
2022-08-22T23:36:46.264Z,101293.44
2022-08-22T23:39:17.297Z,101298.97
2022-08-22T23:41:46.664Z,101291.38
2022-08-22T23:44:17.233Z,101285.88
2022-08-22T23:46:46.147Z,101294.78
2022-08-22T23:49:15.555Z,101289.34
2022-08-22T23:51:45.513Z,101285.94
2022-08-22T23:54:14.738Z,101290.38
2022-08-22T23:56:50.360Z,101286.25
2022-08-22T23:59:22.653Z,101280.53
